Time;durP1;ratioP1;P1;durP2;ratioP2;P2;SDS_P1;SDS_P2;PMS_P1;PMS_P2;Temp;Humidity;BMP_temperature;BMP_pressure;BME280_temperature;BME280_humidity;BME280_pressure;Samples;Min_cycle;Max_cycle;Signal;HPM_P1;HPM_P2
2021/06/28 00:00:43;;;;;;;6.57;6.17;;;;;;;17.70;96.11;97905.78;5080124;28;20213;-71
2021/06/28 00:03:11;;;;;;;7.13;6.63;;;;;;;17.64;96.80;97905.59;5083763;28;20197;-70
2021/06/28 00:05:40;;;;;;;6.23;5.83;;;;;;;17.57;98.46;97896.75;5081348;28;20594;-70
2021/06/28 00:08:10;;;;;;;6.20;5.80;;;;;;;17.56;99.73;97902.34;5080586;28;20673;-69
2021/06/28 00:10:38;;;;;;;7.17;6.43;;;;;;;17.65;99.04;97901.06;5080353;28;20205;-71
2021/06/28 00:13:06;;;;;;;6.60;6.20;;;;;;;17.68;98.50;97895.28;5081679;28;20198;-69
2021/06/28 00:15:37;;;;;;;6.40;6.00;;;;;;;17.65;98.07;97895.69;5080440;28;20198;-69
2021/06/28 00:18:07;;;;;;;7.07;6.57;;;;;;;17.67;97.57;97893.63;5080510;28;20213;-69
2021/06/28 00:20:36;;;;;;;6.60;6.20;;;;;;;17.60;98.08;97896.31;5077224;28;20228;-72
2021/06/28 00:23:04;;;;;;;6.43;6.03;;;;;;;17.70;97.19;97897.75;5078290;28;20209;-69
2021/06/28 00:25:34;;;;;;;6.33;5.93;;;;;;;17.53;98.73;97887.50;5078599;28;20230;-70
2021/06/28 00:28:03;;;;;;;6.27;5.87;;;;;;;17.39;100.00;97901.97;5083088;28;20674;-71
2021/06/28 00:30:33;;;;;;;7.23;6.80;;;;;;;17.33;100.00;97898.28;5080815;28;20606;-70
2021/06/28 00:33:01;;;;;;;6.80;6.40;;;;;;;17.28;100.00;97890.88;5079744;28;20206;-69
2021/06/28 00:35:29;;;;;;;7.27;6.80;;;;;;;17.24;100.00;97905.72;5081693;28;20556;-69
2021/06/28 00:38:00;;;;;;;7.03;6.53;;;;;;;17.27;100.00;97910.66;5079901;28;20217;-70
2021/06/28 00:40:28;;;;;;;7.20;6.60;;;;;;;17.41;100.00;97903.38;5079636;28;20202;-71
2021/06/28 00:42:58;;;;;;;8.00;7.07;;;;;;;17.37;100.00;97907.53;5080357;28;20467;-71
2021/06/28 00:45:27;;;;;;;7.20;6.67;;;;;;;17.41;100.00;97899.91;5080639;28;20226;-69
2021/06/28 00:47:58;;;;;;;6.50;5.97;;;;;;;17.30;100.00;97904.88;5077687;28;20207;-68
2021/06/28 00:50:28;;;;;;;6.93;6.43;;;;;;;17.33;100.00;97899.09;5078315;28;20206;-69
2021/06/28 00:52:58;;;;;;;7.00;6.50;;;;;;;17.24;100.00;97907.56;5077682;28;20213;-69
2021/06/28 00:55:28;;;;;;;6.47;6.07;;;;;;;17.10;100.00;97904.94;5080892;28;20221;-71
2021/06/28 00:57:56;;;;;;;6.83;6.33;;;;;;;16.96;100.00;97914.78;5077887;28;20213;-69
2021/06/28 01:00:25;;;;;;;7.20;6.80;;;;;;;16.98;100.00;97906.56;5075020;28;20594;-69
2021/06/28 01:02:54;;;;;;;6.97;6.37;;;;;;;16.90;100.00;97902.25;5080696;28;20618;-70
2021/06/28 01:05:23;;;;;;;7.00;6.60;;;;;;;16.96;100.00;97908.59;5078143;28;20907;-71
2021/06/28 01:07:52;;;;;;;7.27;6.87;;;;;;;16.98;100.00;97906.56;5080470;28;20236;-69
2021/06/28 01:10:21;;;;;;;6.77;6.27;;;;;;;16.95;100.00;97901.59;5082725;28;20238;-69
2021/06/28 01:12:50;;;;;;;6.97;6.57;;;;;;;16.88;100.00;97915.00;5076424;28;20225;-69
2021/06/28 01:15:19;;;;;;;6.63;6.13;;;;;;;16.82;100.00;97916.66;5079360;28;20625;-70
2021/06/28 01:17:49;;;;;;;7.43;6.70;;;;;;;16.84;100.00;97909.22;5074826;28;20206;-69
2021/06/28 01:20:19;;;;;;;6.80;6.40;;;;;;;16.81;100.00;97917.69;5074191;28;20769;-69
2021/06/28 01:22:48;;;;;;;6.77;6.37;;;;;;;16.74;100.00;97915.00;5082588;28;20208;-69
2021/06/28 01:25:19;;;;;;;7.60;6.93;;;;;;;16.74;100.00;97919.53;5079650;28;20213;-69
2021/06/28 01:27:48;;;;;;;7.37;6.73;;;;;;;16.81;100.00;97919.50;5076468;28;20217;-69
2021/06/28 01:30:18;;;;;;;6.73;6.33;;;;;;;16.73;100.00;97928.59;5081406;28;20661;-70
2021/06/28 01:32:47;;;;;;;7.10;6.60;;;;;;;16.71;100.00;97911.91;5080051;28;20210;-69
2021/06/28 01:35:16;;;;;;;7.37;6.87;;;;;;;16.76;100.00;97920.16;5085223;28;20575;-69
2021/06/28 01:37:45;;;;;;;7.77;6.80;;;;;;;16.76;100.00;97912.13;5084533;28;20875;-70
2021/06/28 01:40:14;;;;;;;7.53;6.80;;;;;;;16.64;100.00;97914.59;5087426;28;20463;-69
2021/06/28 01:42:44;;;;;;;7.27;6.77;;;;;;;16.69;100.00;97916.66;5083751;28;20206;-70
2021/06/28 01:45:15;;;;;;;7.97;6.57;;;;;;;16.64;100.00;97923.41;5084156;28;20214;-70
2021/06/28 01:47:44;;;;;;;6.80;6.30;;;;;;;16.56;100.00;97926.31;5083734;28;20226;-69
2021/06/28 01:50:13;;;;;;;7.50;6.97;;;;;;;16.47;100.00;97938.22;5084635;28;20602;-69
2021/06/28 01:52:43;;;;;;;7.50;6.97;;;;;;;16.45;100.00;97935.75;5081276;28;20214;-69
2021/06/28 01:55:15;;;;;;;7.70;7.03;;;;;;;16.42;100.00;97932.66;5083747;28;20474;-70
2021/06/28 01:57:47;;;;;;;6.93;6.53;;;;;;;16.55;100.00;97932.69;5084453;28;20282;-70
2021/06/28 02:00:18;;;;;;;7.83;7.03;;;;;;;16.51;100.00;97922.59;5080873;28;20226;-69
2021/06/28 02:03:02;;;;;;;8.13;7.53;;;;;;;16.37;100.00;97930.59;5081430;28;20666;-71
2021/06/28 02:05:31;;;;;;;7.53;7.03;;;;;;;16.34;100.00;97931.00;5084146;28;20202;-68
2021/06/28 02:08:00;;;;;;;7.40;7.00;;;;;;;16.34;100.00;97925.66;5084684;28;20205;-69
2021/06/28 02:10:28;;;;;;;7.50;6.90;;;;;;;16.42;100.00;97933.47;5083527;28;20400;-69
2021/06/28 02:12:58;;;;;;;7.10;6.50;;;;;;;16.42;100.00;97928.13;5082378;28;20207;-70
2021/06/28 02:15:29;;;;;;;7.47;6.90;;;;;;;16.36;100.00;97920.91;5082555;28;20213;-70
2021/06/28 02:17:58;;;;;;;8.33;7.50;;;;;;;16.32;100.00;97925.03;5085363;28;20193;-70
2021/06/28 02:20:26;;;;;;;7.40;6.70;;;;;;;16.27;100.00;97920.28;5081605;28;20211;-70
2021/06/28 02:22:55;;;;;;;8.50;7.73;;;;;;;16.20;100.00;97922.13;5082796;28;20685;-68
2021/06/28 02:25:23;;;;;;;7.30;6.87;;;;;;;16.15;100.00;97933.44;5080195;28;20207;-69
2021/06/28 02:27:51;;;;;;;9.20;8.27;;;;;;;16.15;100.00;97930.78;5081213;28;20229;-70
2021/06/28 02:30:21;;;;;;;7.97;7.27;;;;;;;16.16;100.00;97936.94;5083053;28;20237;-70
2021/06/28 02:32:49;;;;;;;7.10;6.60;;;;;;;16.12;100.00;97939.19;5086092;28;20654;-68
2021/06/28 02:35:18;;;;;;;7.80;7.30;;;;;;;16.07;100.00;97933.59;5083460;28;20222;-69
2021/06/28 02:37:46;;;;;;;8.07;7.47;;;;;;;16.09;100.00;97933.41;5080887;28;20215;-69
2021/06/28 02:40:14;;;;;;;7.80;7.30;;;;;;;16.02;100.00;97928.88;5081916;28;21088;-69
2021/06/28 02:42:42;;;;;;;7.17;6.63;;;;;;;16.04;100.00;97937.50;5083394;28;20210;-70
2021/06/28 02:45:11;;;;;;;7.50;7.00;;;;;;;15.96;100.00;97934.19;5082088;28;20210;-68
2021/06/28 02:47:40;;;;;;;8.00;7.47;;;;;;;16.00;100.00;97944.28;5083514;28;20218;-70
2021/06/28 02:50:10;;;;;;;8.50;7.87;;;;;;;15.98;100.00;97935.66;5081757;28;20229;-67
2021/06/28 02:52:38;;;;;;;8.10;7.60;;;;;;;15.93;100.00;97934.59;5082139;28;20202;-68
2021/06/28 02:55:08;;;;;;;8.13;7.63;;;;;;;15.90;100.00;97935.81;5080516;28;20610;-67
2021/06/28 02:57:36;;;;;;;7.97;7.37;;;;;;;15.88;100.00;97938.69;5077017;28;20210;-69
2021/06/28 03:00:07;;;;;;;9.30;8.43;;;;;;;15.89;100.00;97939.50;5079803;28;20218;-69
2021/06/28 03:02:36;;;;;;;8.97;8.37;;;;;;;15.93;100.00;97938.09;5079926;28;20198;-69
2021/06/28 03:05:07;;;;;;;10.63;8.47;;;;;;;15.97;100.00;97938.50;5081210;28;20240;-69
2021/06/28 03:07:36;;;;;;;8.57;7.87;;;;;;;15.89;100.00;97934.16;5079693;28;20706;-69
2021/06/28 03:10:06;;;;;;;9.40;8.50;;;;;;;15.81;100.00;97935.13;5081523;28;20226;-70
2021/06/28 03:12:34;;;;;;;9.17;8.57;;;;;;;15.77;100.00;97936.56;5081754;28;20209;-70
2021/06/28 03:15:02;;;;;;;9.77;8.93;;;;;;;15.80;100.00;97930.81;5082064;28;20643;-69
2021/06/28 03:17:31;;;;;;;9.97;9.17;;;;;;;15.75;100.00;97915.38;5080992;28;20202;-69
2021/06/28 03:19:59;;;;;;;9.33;8.63;;;;;;;15.71;100.00;97918.63;5080900;28;20604;-70
2021/06/28 03:22:28;;;;;;;10.10;9.30;;;;;;;15.74;100.00;97926.28;5079374;28;20234;-69
2021/06/28 03:24:56;;;;;;;8.87;8.23;;;;;;;15.76;100.00;97922.38;5079944;28;20215;-69
2021/06/28 03:27:24;;;;;;;9.03;8.33;;;;;;;15.74;100.00;97923.59;5079730;28;20603;-69
2021/06/28 03:29:53;;;;;;;9.57;8.77;;;;;;;15.73;100.00;97930.78;5081435;28;20231;-69
2021/06/28 03:32:21;;;;;;;9.10;8.33;;;;;;;15.76;100.00;97929.56;5082713;28;20202;-69
2021/06/28 03:34:50;;;;;;;8.80;8.10;;;;;;;15.86;100.00;97924.69;5082658;28;20219;-69
2021/06/28 03:37:18;;;;;;;9.37;8.60;;;;;;;15.87;100.00;97923.66;5081736;28;20392;-69
2021/06/28 03:39:48;;;;;;;9.00;8.23;;;;;;;16.03;100.00;97922.50;5082398;28;20237;-71
2021/06/28 03:42:16;;;;;;;9.90;8.97;;;;;;;16.09;100.00;97920.84;5085750;28;20948;-70
2021/06/28 03:44:44;;;;;;;9.67;9.00;;;;;;;16.16;100.00;97916.38;5079779;28;20206;-70
2021/06/28 03:47:12;;;;;;;10.00;9.30;;;;;;;16.27;100.00;97916.81;5082812;28;20718;-69
2021/06/28 03:49:40;;;;;;;9.67;8.97;;;;;;;16.39;100.00;97919.72;5076485;28;20596;-69
2021/06/28 03:52:08;;;;;;;9.40;8.67;;;;;;;16.52;100.00;97918.91;5081562;28;20213;-71
2021/06/28 03:54:36;;;;;;;9.37;8.67;;;;;;;16.55;100.00;97913.16;5082049;28;20210;-71
2021/06/28 03:57:06;;;;;;;9.93;9.13;;;;;;;16.67;100.00;97910.66;5082822;28;20254;-71
2021/06/28 03:59:34;;;;;;;10.93;9.97;;;;;;;16.78;100.00;97908.19;5082085;28;20240;-71
2021/06/28 04:02:03;;;;;;;9.80;9.00;;;;;;;16.94;100.00;97914.19;5082096;28;20202;-69
2021/06/28 04:04:31;;;;;;;9.03;8.30;;;;;;;17.04;100.00;97911.09;5080383;28;20206;-70
2021/06/28 04:06:59;;;;;;;9.57;8.87;;;;;;;17.04;100.00;97919.94;5081115;28;21408;-72
2021/06/28 04:09:27;;;;;;;8.83;8.03;;;;;;;17.18;100.00;97925.28;5076623;28;20236;-70
2021/06/28 04:11:55;;;;;;;9.10;8.30;;;;;;;17.20;100.00;97928.56;5081178;28;20226;-70
2021/06/28 04:14:24;;;;;;;9.23;8.40;;;;;;;17.34;100.00;97934.72;5075808;28;20595;-70
2021/06/28 04:16:53;;;;;;;9.27;8.33;;;;;;;17.38;100.00;97943.19;5079788;28;20236;-71
2021/06/28 04:19:21;;;;;;;9.40;8.50;;;;;;;17.36;100.00;97941.53;5081068;28;20229;-69
2021/06/28 04:21:49;;;;;;;10.57;8.27;;;;;;;17.40;100.00;97935.75;5081626;28;20210;-70
2021/06/28 04:24:17;;;;;;;9.13;8.47;;;;;;;17.49;100.00;97934.50;5083894;28;20198;-68
2021/06/28 04:26:45;;;;;;;8.53;7.83;;;;;;;17.42;100.00;97931.81;5080725;28;20206;-70
2021/06/28 04:29:13;;;;;;;9.17;8.53;;;;;;;17.35;100.00;97931.84;5078140;28;20221;-70
2021/06/28 04:31:42;;;;;;;8.60;7.93;;;;;;;17.41;100.00;97922.13;5079041;28;20206;-67
2021/06/28 04:34:10;;;;;;;8.73;8.13;;;;;;;17.45;100.00;97922.56;5073542;28;20206;-66
2021/06/28 04:36:39;;;;;;;8.57;8.00;;;;;;;17.34;100.00;97924.03;5083819;28;20212;-68
2021/06/28 04:39:07;;;;;;;9.40;8.53;;;;;;;17.29;100.00;97931.84;5078724;28;20625;-67
2021/06/28 04:41:35;;;;;;;8.77;8.17;;;;;;;17.33;100.00;97935.75;5077268;28;20238;-69
2021/06/28 04:44:03;;;;;;;9.00;8.40;;;;;;;17.25;100.00;97933.31;5080864;28;20225;-67
2021/06/28 04:46:31;;;;;;;10.10;9.40;;;;;;;17.24;100.00;97929.81;5078923;28;20206;-67
2021/06/28 04:49:01;;;;;;;9.50;8.77;;;;;;;17.33;100.00;97923.22;5081194;28;20230;-70
2021/06/28 04:51:29;;;;;;;8.37;7.77;;;;;;;17.28;100.00;97936.41;5082905;28;20653;-72
2021/06/28 04:53:57;;;;;;;9.20;8.43;;;;;;;17.31;100.00;97935.16;5080589;28;20198;-70
2021/06/28 04:56:25;;;;;;;9.03;8.23;;;;;;;17.40;100.00;97933.88;5080244;28;20214;-70
2021/06/28 04:58:53;;;;;;;9.07;8.10;;;;;;;17.55;100.00;97935.53;5079899;28;20222;-70
2021/06/28 05:01:21;;;;;;;8.83;8.03;;;;;;;17.74;100.00;97942.66;5076940;28;20202;-71
2021/06/28 05:03:49;;;;;;;8.93;8.33;;;;;;;17.68;100.00;97931.97;5079644;28;20271;-71
2021/06/28 05:06:19;;;;;;;8.77;7.93;;;;;;;17.82;100.00;97933.56;5081838;28;20729;-70
2021/06/28 05:08:47;;;;;;;10.70;8.20;;;;;;;17.82;100.00;97933.56;5080810;28;20236;-69
2021/06/28 05:11:15;;;;;;;9.17;8.37;;;;;;;17.85;100.00;97933.13;5081314;28;20741;-70
2021/06/28 05:13:43;;;;;;;9.33;8.53;;;;;;;17.92;100.00;97938.47;5083243;28;20380;-70
2021/06/28 05:16:11;;;;;;;8.50;7.90;;;;;;;17.99;100.00;97933.06;5082891;28;20202;-69
2021/06/28 05:18:39;;;;;;;9.10;8.50;;;;;;;17.97;100.00;97929.78;5086739;28;20248;-71
2021/06/28 05:21:07;;;;;;;8.70;8.00;;;;;;;18.12;100.00;97925.00;5089744;28;20301;-72
2021/06/28 05:23:36;;;;;;;9.43;8.53;;;;;;;18.30;100.00;97926.97;5086437;28;20210;-70
2021/06/28 05:26:04;;;;;;;9.17;8.43;;;;;;;18.33;99.51;97933.75;5086514;28;20217;-72
2021/06/28 05:28:32;;;;;;;11.57;9.50;;;;;;;18.40;97.51;97934.56;5085000;28;20226;-69
2021/06/28 05:31:01;;;;;;;10.30;9.37;;;;;;;18.57;95.06;97928.66;5085138;28;20806;-69
2021/06/28 05:33:29;;;;;;;9.40;8.30;;;;;;;18.75;94.61;97925.22;5085244;28;20213;-67
2021/06/28 05:35:57;;;;;;;9.77;8.87;;;;;;;18.86;93.39;97931.75;5085181;28;20210;-69
2021/06/28 05:38:25;;;;;;;9.57;8.77;;;;;;;19.00;92.56;97938.66;5079701;28;20226;-70
2021/06/28 05:40:54;;;;;;;9.27;8.50;;;;;;;19.20;91.35;97938.47;5086458;28;20325;-70
2021/06/28 05:43:23;;;;;;;8.73;8.03;;;;;;;19.42;92.34;97931.84;5084472;28;20202;-69
2021/06/28 05:45:51;;;;;;;11.47;9.43;;;;;;;19.24;92.85;97925.44;5084769;28;20218;-71
2021/06/28 05:48:19;;;;;;;8.80;8.10;;;;;;;19.05;93.40;97928.06;5082433;28;20230;-69
2021/06/28 05:50:49;;;;;;;9.50;8.60;;;;;;;19.13;92.94;97920.78;5085473;28;20206;-69
2021/06/28 05:53:17;;;;;;;8.90;8.10;;;;;;;19.22;93.11;97924.84;5081806;28;20198;-72
2021/06/28 05:55:45;;;;;;;8.70;8.10;;;;;;;19.23;92.15;97927.28;5086252;28;20709;-70
2021/06/28 05:58:17;;;;;;;9.97;8.27;;;;;;;19.23;93.07;97926.47;5081240;28;20293;-70
2021/06/28 06:00:45;;;;;;;8.60;7.90;;;;;;;19.36;92.51;97922.84;5081739;28;20203;-70
2021/06/28 06:03:13;;;;;;;9.47;8.67;;;;;;;19.42;92.06;97924.63;5081708;28;20206;-69
2021/06/28 06:05:41;;;;;;;8.77;8.03;;;;;;;19.66;88.99;97930.97;5080732;28;20211;-72
2021/06/28 06:08:10;;;;;;;8.87;8.07;;;;;;;19.58;88.34;97930.44;5084585;28;20229;-69
2021/06/28 06:10:38;;;;;;;8.40;7.70;;;;;;;19.61;89.03;97927.31;5084596;28;20244;-70
2021/06/28 06:13:06;;;;;;;9.10;8.30;;;;;;;19.70;87.88;97927.84;5082025;28;20207;-72
2021/06/28 06:15:35;;;;;;;10.10;8.40;;;;;;;19.74;87.21;97927.19;5081870;28;20206;-70
2021/06/28 06:18:04;;;;;;;8.60;8.00;;;;;;;19.73;88.11;97924.69;5081758;28;20203;-72
2021/06/28 06:20:32;;;;;;;8.33;7.67;;;;;;;19.81;87.27;97921.69;5083999;28;20210;-69
2021/06/28 06:23:01;;;;;;;9.30;8.40;;;;;;;19.74;88.04;97920.97;5081121;28;20891;-72
2021/06/28 06:25:29;;;;;;;9.23;8.53;;;;;;;19.75;88.15;97926.13;5080529;28;20202;-71
2021/06/28 06:27:57;;;;;;;9.13;8.47;;;;;;;20.07;84.78;97933.19;5083555;28;20206;-69
2021/06/28 06:30:25;;;;;;;9.63;8.83;;;;;;;20.07;84.38;97930.50;5083023;28;20202;-69
2021/06/28 06:32:55;;;;;;;9.37;8.53;;;;;;;20.19;85.23;97919.81;5088340;28;20568;-69
2021/06/28 06:35:23;;;;;;;9.83;8.93;;;;;;;20.24;85.71;97920.75;5084962;28;20675;-69
2021/06/28 06:37:53;;;;;;;9.73;8.73;;;;;;;20.34;84.18;97922.88;5084782;28;20206;-71
2021/06/28 06:40:22;;;;;;;13.63;10.10;;;;;;;20.46;81.82;97912.16;5078214;28;20230;-69
2021/06/28 06:42:51;;;;;;;15.50;9.77;;;;;;;20.42;83.54;97915.53;5084064;28;20218;-72
2021/06/28 06:45:20;;;;;;;17.23;9.77;;;;;;;20.49;84.05;97927.03;5080744;28;20742;-70
2021/06/28 06:47:48;;;;;;;17.57;9.83;;;;;;;20.75;82.75;97931.19;5083759;28;20689;-70
2021/06/28 06:50:18;;;;;;;11.70;9.23;;;;;;;21.32;79.14;97940.59;5082766;28;20230;-71
2021/06/28 06:52:47;;;;;;;12.20;8.30;;;;;;;21.31;77.65;97947.06;5085100;28;20202;-70
2021/06/28 06:55:15;;;;;;;9.63;8.67;;;;;;;21.23;78.60;97942.84;5084424;28;20198;-73
2021/06/28 06:57:44;;;;;;;9.07;8.23;;;;;;;21.35;79.96;97939.34;5080190;28;20206;-71
2021/06/28 07:00:15;;;;;;;8.30;7.60;;;;;;;21.64;77.88;97939.44;5081670;28;20232;-71
2021/06/28 07:02:43;;;;;;;8.20;7.30;;;;;;;21.83;75.47;97932.81;5081640;28;20202;-70
2021/06/28 07:05:12;;;;;;;8.07;7.27;;;;;;;21.88;75.36;97928.59;5077354;28;20203;-69
2021/06/28 07:07:41;;;;;;;8.23;7.43;;;;;;;21.64;77.37;97932.16;5080996;28;20594;-70
2021/06/28 07:10:11;;;;;;;8.03;7.53;;;;;;;21.82;75.74;97931.19;5080159;28;20222;-69
2021/06/28 07:12:40;;;;;;;7.40;6.90;;;;;;;21.94;75.54;97931.16;5081099;28;20217;-69
2021/06/28 07:15:10;;;;;;;7.13;6.63;;;;;;;22.00;74.46;97928.56;5085469;28;20198;-70
2021/06/28 07:17:38;;;;;;;6.83;6.40;;;;;;;22.27;72.94;97929.63;5084863;28;20202;-69
2021/06/28 07:20:07;;;;;;;6.80;6.40;;;;;;;22.44;70.29;97925.31;5084311;28;20222;-69
2021/06/28 07:22:35;;;;;;;7.23;6.57;;;;;;;22.45;69.93;97926.97;5083323;28;20714;-79
2021/06/28 07:25:05;;;;;;;6.33;6.03;;;;;;;22.53;70.06;97930.09;5082423;28;20348;-79
2021/06/28 07:27:34;;;;;;;5.90;5.60;;;;;;;22.60;68.27;97931.84;5080963;28;20213;-78
2021/06/28 07:30:02;;;;;;;6.37;5.97;;;;;;;22.90;66.66;97930.69;5083153;28;20690;-78
2021/06/28 07:32:30;;;;;;;7.30;6.57;;;;;;;22.95;67.17;97930.78;5086778;28;20202;-79
2021/06/28 07:34:58;;;;;;;6.60;6.20;;;;;;;23.08;67.54;97935.84;5086161;28;20400;-79
2021/06/28 07:37:26;;;;;;;7.30;6.77;;;;;;;23.15;66.87;97926.75;5080639;28;20221;-78
2021/06/28 07:39:54;;;;;;;7.23;6.47;;;;;;;23.07;66.71;97934.22;5081265;28;20226;-79
2021/06/28 07:42:25;;;;;;;7.80;7.00;;;;;;;23.20;66.67;97933.06;5087558;28;20637;-79
2021/06/28 07:44:54;;;;;;;7.13;6.60;;;;;;;23.18;65.92;97931.66;5083906;28;20233;-79
2021/06/28 07:47:22;;;;;;;6.00;5.60;;;;;;;23.21;65.47;97923.88;5084044;28;20643;-79
2021/06/28 07:49:50;;;;;;;6.47;5.93;;;;;;;23.52;63.38;97937.03;5082466;28;20226;-79
2021/06/28 07:52:18;;;;;;;5.70;5.30;;;;;;;23.60;63.47;97933.09;5083056;28;20225;-79
2021/06/28 07:54:47;;;;;;;6.27;5.87;;;;;;;23.61;63.49;97938.22;5078415;28;20234;-79
2021/06/28 07:57:15;;;;;;;6.43;6.03;;;;;;;23.79;63.99;97931.69;5082207;28;20202;-79
2021/06/28 07:59:45;;;;;;;5.90;5.60;;;;;;;23.89;62.70;97925.59;5083361;28;20222;-79
2021/06/28 08:02:13;;;;;;;6.50;6.00;;;;;;;23.98;62.79;97934.09;5085118;28;20202;-79
2021/06/28 08:04:41;;;;;;;5.93;5.50;;;;;;;24.24;60.55;97929.78;5083370;28;20667;-79
2021/06/28 08:07:09;;;;;;;7.57;6.67;;;;;;;24.28;60.62;97922.00;5084089;28;20205;-79
2021/06/28 08:09:57;;;;;;;6.37;5.97;;;;;;;24.53;61.48;97926.84;5078896;28;20234;-79
2021/06/28 08:12:25;;;;;;;6.13;5.73;;;;;;;24.50;61.42;97929.22;5083071;28;20226;-79
2021/06/28 08:14:54;;;;;;;5.60;5.30;;;;;;;24.61;59.21;97930.16;5083611;28;20202;-79
2021/06/28 08:17:22;;;;;;;6.50;5.90;;;;;;;24.73;59.83;97928.06;5086838;28;20202;-79
2021/06/28 08:19:50;;;;;;;6.10;5.70;;;;;;;24.67;59.49;97929.94;5088114;28;20718;-79
2021/06/28 08:22:18;;;;;;;6.60;6.10;;;;;;;24.89;58.13;97922.81;5084189;28;20206;-79
2021/06/28 08:24:47;;;;;;;6.33;5.73;;;;;;;24.82;59.81;97929.28;5077231;28;20461;-80
2021/06/28 08:27:15;;;;;;;6.17;5.77;;;;;;;24.81;60.42;97924.09;5080539;28;20202;-79
2021/06/28 08:29:44;;;;;;;6.57;6.07;;;;;;;24.87;59.92;97922.25;5081608;28;20241;-79
2021/06/28 08:32:14;;;;;;;6.23;5.73;;;;;;;24.94;60.35;97923.66;5084886;28;20211;-79
2021/06/28 08:34:42;;;;;;;7.07;6.40;;;;;;;25.02;58.96;97921.56;5081027;28;20543;-79
2021/06/28 08:37:10;;;;;;;6.37;6.07;;;;;;;25.18;58.71;97917.03;5084762;28;20202;-79
2021/06/28 08:39:38;;;;;;;6.50;6.00;;;;;;;25.32;58.88;97920.09;5083029;28;20237;-79
2021/06/28 08:42:08;;;;;;;6.70;6.30;;;;;;;25.37;58.69;97923.69;5080820;28;20199;-80
2021/06/28 08:44:36;;;;;;;6.57;6.17;;;;;;;25.58;58.67;97919.19;5086255;28;20617;-79
2021/06/28 08:47:04;;;;;;;6.53;6.03;;;;;;;25.71;56.61;97919.78;5088420;28;20559;-79
2021/06/28 08:49:34;;;;;;;6.00;5.60;;;;;;;25.82;55.95;97918.78;5089715;28;20230;-79
2021/06/28 08:52:03;;;;;;;6.63;6.17;;;;;;;25.81;54.67;97914.41;5084245;28;20210;-79
2021/06/28 08:54:31;;;;;;;5.77;5.33;;;;;;;25.91;54.29;97920.97;5086392;28;20206;-79
2021/06/28 08:57:00;;;;;;;6.50;6.10;;;;;;;25.91;54.73;97915.53;5081978;28;20198;-80
2021/06/28 08:59:28;;;;;;;6.20;5.80;;;;;;;26.13;54.04;97910.69;5086349;28;20226;-79
2021/06/28 09:01:56;;;;;;;5.70;5.30;;;;;;;26.20;52.43;97915.91;5089077;28;20229;-79
2021/06/28 09:04:25;;;;;;;5.60;5.30;;;;;;;26.29;52.30;97910.78;5086636;28;20198;-79
2021/06/28 09:06:54;;;;;;;5.70;5.13;;;;;;;26.64;52.57;97919.22;5087081;28;20210;-79
2021/06/28 09:09:23;;;;;;;5.53;5.23;;;;;;;26.66;52.21;97917.88;5083324;28;20227;-79
2021/06/28 09:11:53;;;;;;;5.83;5.27;;;;;;;26.73;51.76;97917.63;5090868;28;20187;-79
2021/06/28 09:14:24;;;;;;;5.10;4.87;;;;;;;26.97;51.61;97926.06;5106412;28;20479;-78
2021/06/28 09:16:52;;;;;;;5.77;5.47;;;;;;;26.94;49.55;97923.06;5105722;28;20208;-78
2021/06/28 09:19:22;;;;;;;5.27;4.97;;;;;;;27.03;50.65;97921.41;5093144;28;20234;-78
2021/06/28 09:21:52;;;;;;;5.67;5.30;;;;;;;26.92;51.01;97919.78;5085907;28;20207;-78
2021/06/28 09:24:27;;;;;;;5.80;5.40;;;;;;;26.89;50.85;97925.78;5086429;28;20204;-79
2021/06/28 09:26:56;;;;;;;5.30;5.00;;;;;;;27.22;50.32;97927.09;5085675;28;20210;-78
2021/06/28 09:29:35;;;;;;;5.67;5.37;;;;;;;27.25;48.54;97912.13;5086188;28;20222;-78
2021/06/28 09:32:10;;;;;;;5.03;4.83;;;;;;;27.02;50.26;97917.88;5087115;28;20217;-78
2021/06/28 09:34:39;;;;;;;4.83;4.43;;;;;;;27.05;49.33;97915.72;5086780;28;20616;-79
2021/06/28 09:37:12;;;;;;;5.13;4.70;;;;;;;26.97;49.92;97917.91;5086474;28;20584;-78
2021/06/28 09:39:43;;;;;;;5.33;4.93;;;;;;;27.12;48.76;97914.34;5081991;28;20224;-78
2021/06/28 09:42:13;;;;;;;5.13;4.83;;;;;;;27.19;49.42;97913.25;5084467;28;20215;-79
2021/06/28 09:44:49;;;;;;;5.43;5.03;;;;;;;27.40;48.99;97912.09;5087502;28;20208;-79
2021/06/28 09:47:19;;;;;;;4.13;3.93;;;;;;;27.56;46.75;97912.88;5084255;28;20655;-79
2021/06/28 09:50:00;;;;;;;4.90;4.53;;;;;;;27.42;47.24;97906.38;5080214;28;20237;-79
2021/06/28 09:52:30;;;;;;;4.73;4.43;;;;;;;27.71;45.82;97911.22;5083812;28;20666;-79
2021/06/28 09:55:12;;;;;;;4.40;4.00;;;;;;;27.55;45.98;97907.72;5084424;28;20224;-78
2021/06/28 09:57:40;;;;;;;4.37;4.07;;;;;;;27.64;45.79;97907.94;5085303;28;20508;-79
2021/06/28 10:00:23;;;;;;;5.17;4.33;;;;;;;27.91;45.37;97893.97;5090572;28;20232;-79
2021/06/28 10:02:51;;;;;;;3.90;3.70;;;;;;;27.96;46.47;97901.28;5086126;28;20202;-78
2021/06/28 10:05:22;;;;;;;4.17;3.90;;;;;;;28.06;45.30;97897.69;5082655;28;20206;-79
2021/06/28 10:07:51;;;;;;;4.13;3.73;;;;;;;28.23;44.88;97900.06;5083428;28;20210;-79
2021/06/28 10:10:23;;;;;;;3.80;3.60;;;;;;;28.23;44.61;97900.91;5082632;28;20261;-79
2021/06/28 10:13:03;;;;;;;3.80;3.60;;;;;;;28.18;43.82;97890.00;5084778;28;20675;-79
2021/06/28 10:15:33;;;;;;;3.53;3.43;;;;;;;27.99;44.42;97887.94;5084165;28;20658;-79
2021/06/28 10:18:02;;;;;;;3.83;3.53;;;;;;;27.98;44.73;97889.03;5086337;28;20202;-78
2021/06/28 10:20:32;;;;;;;4.03;3.70;;;;;;;28.05;45.17;97883.28;5083179;28;20205;-78
2021/06/28 10:23:01;;;;;;;3.93;3.70;;;;;;;28.48;41.41;97881.94;5084369;28;20213;-79
2021/06/28 10:25:31;;;;;;;3.37;3.17;;;;;;;28.28;43.90;97884.50;5083461;28;20202;-79
2021/06/28 10:28:00;;;;;;;3.70;3.50;;;;;;;28.54;42.46;97887.03;5083237;28;20222;-79
2021/06/28 10:30:29;;;;;;;4.00;3.70;;;;;;;28.51;43.47;97878.63;5084447;28;20521;-79
2021/06/28 10:33:00;;;;;;;3.50;3.33;;;;;;;28.99;41.96;97881.50;5086850;28;20535;-79
2021/06/28 10:35:30;;;;;;;4.23;4.03;;;;;;;29.07;42.26;97880.06;5082579;28;20241;-79
2021/06/28 10:38:06;;;;;;;4.20;3.80;;;;;;;29.11;43.24;97870.19;5075327;28;21674;-79
2021/06/28 10:40:53;;;;;;;5.93;4.80;;;;;;;28.89;43.06;97866.03;5078591;28;20687;-79
2021/06/28 10:43:32;;;;;;;3.67;3.43;;;;;;;29.40;42.82;97871.25;5082099;28;20213;-79
2021/06/28 10:46:01;;;;;;;4.13;3.93;;;;;;;29.93;39.91;97864.84;5085256;28;20210;-79
2021/06/28 10:48:31;;;;;;;4.03;3.83;;;;;;;30.22;39.37;97871.28;5080194;28;20701;-78
2021/06/28 10:51:01;;;;;;;4.03;3.83;;;;;;;30.01;39.53;97869.69;5082505;28;20229;-78
2021/06/28 10:54:02;;;;;;;3.80;3.50;;;;;;;30.16;39.49;97865.13;5084630;28;20205;-78
2021/06/28 10:56:57;;;;;;;4.27;4.00;;;;;;;30.53;39.01;97868.91;5021740;28;20261;-78
2021/06/28 10:59:33;;;;;;;4.13;3.93;;;;;;;30.36;40.37;97860.44;5023469;28;20220;-78
2021/06/28 11:02:09;;;;;;;4.03;3.80;;;;;;;29.83;39.91;97868.53;5064264;28;20206;-78
2021/06/28 11:04:39;;;;;;;4.40;4.00;;;;;;;29.87;41.00;97866.84;5095669;28;20266;-77
2021/06/28 11:07:17;;;;;;;3.87;3.70;;;;;;;29.66;40.22;97866.28;5098547;28;20224;-77
2021/06/28 11:09:49;;;;;;;3.87;3.67;;;;;;;30.40;38.08;97856.81;5089738;28;20234;-78
2021/06/28 11:12:32;;;;;;;4.43;4.13;;;;;;;30.85;38.06;97853.59;5084040;28;20458;-70
2021/06/28 11:15:03;;;;;;;3.73;3.40;;;;;;;30.63;37.92;97859.72;5082265;28;20721;-71
2021/06/28 11:17:49;;;;;;;3.90;3.70;;;;;;;30.79;37.05;97857.53;5079971;28;20600;-70
2021/06/28 11:20:34;;;;;;;4.33;4.03;;;;;;;31.11;37.77;97850.41;5083106;28;20233;-70
2021/06/28 11:23:06;;;;;;;3.93;3.63;;;;;;;30.64;38.01;97847.69;5082755;28;20206;-70
2021/06/28 11:25:43;;;;;;;3.77;3.47;;;;;;;30.54;37.50;97850.56;5083938;28;20199;-69
2021/06/28 11:28:23;;;;;;;3.40;3.30;;;;;;;30.98;37.93;97854.75;5079524;28;20202;-71
2021/06/28 11:31:00;;;;;;;4.10;3.80;;;;;;;31.22;36.53;97851.06;5082452;28;20227;-70
2021/06/28 11:33:39;;;;;;;5.00;3.90;;;;;;;31.25;35.72;97844.13;5082351;28;20203;-69
2021/06/28 11:36:34;;;;;;;4.07;3.87;;;;;;;30.90;37.59;97839.03;5081085;28;20216;-70
2021/06/28 11:39:20;;;;;;;3.60;3.40;;;;;;;30.66;37.86;97834.53;5076551;28;20225;-69
2021/06/28 11:42:17;;;;;;;3.80;3.60;;;;;;;31.24;36.93;97828.84;5073107;28;20203;-69